sensor_id;sensor_type;location;lat;lon;timestamp;pressure;altitude;pressure_sealevel;temperature;humidity
52625;BME280;38519;52.540;13.410;2023-05-23T00:00:09;100218.22;;;17.74;92.85
52625;BME280;38519;52.540;13.410;2023-05-23T00:02:35;100216.50;;;17.76;92.73
52625;BME280;38519;52.540;13.410;2023-05-23T00:05:03;100220.91;;;17.76;92.67
52625;BME280;38519;52.540;13.410;2023-05-23T00:07:28;100210.28;;;17.74;92.89
52625;BME280;38519;52.540;13.410;2023-05-23T00:09:53;100215.63;;;17.76;92.69
52625;BME280;38519;52.540;13.410;2023-05-23T00:12:20;100208.53;;;17.75;92.83
52625;BME280;38519;52.540;13.410;2023-05-23T00:14:46;100212.94;;;17.74;92.85
52625;BME280;38519;52.540;13.410;2023-05-23T00:17:12;100209.34;;;17.72;92.70
52625;BME280;38519;52.540;13.410;2023-05-23T00:19:37;100210.22;;;17.73;92.92
52625;BME280;38519;52.540;13.410;2023-05-23T00:22:02;100202.09;;;17.66;93.01
52625;BME280;38519;52.540;13.410;2023-05-23T00:24:28;100202.03;;;17.65;93.11
52625;BME280;38519;52.540;13.410;2023-05-23T00:26:53;100196.75;;;17.65;93.05
52625;BME280;38519;52.540;13.410;2023-05-23T00:29:19;100202.72;;;17.59;93.22
52625;BME280;38519;52.540;13.410;2023-05-23T00:31:45;100192.81;;;17.54;93.47
52625;BME280;38519;52.540;13.410;2023-05-23T00:34:16;100190.00;;;17.49;93.78
52625;BME280;38519;52.540;13.410;2023-05-23T00:36:42;100197.03;;;17.48;93.76
52625;BME280;38519;52.540;13.410;2023-05-23T00:39:07;100188.06;;;17.43;93.87
52625;BME280;38519;52.540;13.410;2023-05-23T00:41:33;100190.66;;;17.42;94.17
52625;BME280;38519;52.540;13.410;2023-05-23T00:43:59;100191.31;;;17.36;94.13
52625;BME280;38519;52.540;13.410;2023-05-23T00:46:25;100190.34;;;17.34;94.31
52625;BME280;38519;52.540;13.410;2023-05-23T00:48:52;100199.97;;;17.32;94.54
52625;BME280;38519;52.540;13.410;2023-05-23T00:51:18;100189.28;;;17.29;94.52
52625;BME280;38519;52.540;13.410;2023-05-23T00:53:43;100192.69;;;17.26;94.66
52625;BME280;38519;52.540;13.410;2023-05-23T00:56:08;100186.41;;;17.23;94.81
52625;BME280;38519;52.540;13.410;2023-05-23T00:58:34;100179.97;;;17.15;95.06
52625;BME280;38519;52.540;13.410;2023-05-23T01:00:59;100176.31;;;17.11;95.35
52625;BME280;38519;52.540;13.410;2023-05-23T01:03:25;100179.78;;;17.10;95.29
52625;BME280;38519;52.540;13.410;2023-05-23T01:05:53;100174.38;;;17.07;95.33
52625;BME280;38519;52.540;13.410;2023-05-23T01:08:20;100168.16;;;17.05;95.55
52625;BME280;38519;52.540;13.410;2023-05-23T01:10:46;100168.94;;;17.02;95.74
52625;BME280;38519;52.540;13.410;2023-05-23T01:13:19;100166.28;;;17.02;95.92
52625;BME280;38519;52.540;13.410;2023-05-23T01:18:23;100153.00;;;16.99;95.91
52625;BME280;38519;52.540;13.410;2023-05-23T01:20:55;100153.88;;;17.00;96.10
52625;BME280;38519;52.540;13.410;2023-05-23T01:28:51;100158.50;;;17.05;96.10
52625;BME280;38519;52.540;13.410;2023-05-23T01:31:18;100161.13;;;17.05;96.25
52625;BME280;38519;52.540;13.410;2023-05-23T01:33:45;100149.69;;;17.05;96.27
52625;BME280;38519;52.540;13.410;2023-05-23T01:36:14;100147.00;;;17.03;96.57
52625;BME280;38519;52.540;13.410;2023-05-23T01:38:39;100144.31;;;17.02;96.47
52625;BME280;38519;52.540;13.410;2023-05-23T01:41:05;100145.91;;;16.98;96.39
52625;BME280;38519;52.540;13.410;2023-05-23T01:43:30;100152.09;;;16.99;96.86
52625;BME280;38519;52.540;13.410;2023-05-23T01:45:56;100144.38;;;17.03;96.54
52625;BME280;38519;52.540;13.410;2023-05-23T01:48:22;100147.91;;;17.04;96.66
52625;BME280;38519;52.540;13.410;2023-05-23T01:50:48;100144.69;;;17.13;96.24
52625;BME280;38519;52.540;13.410;2023-05-23T01:53:17;100141.84;;;17.06;96.53
52625;BME280;38519;52.540;13.410;2023-05-23T01:55:43;100139.88;;;17.01;97.04
52625;BME280;38519;52.540;13.410;2023-05-23T01:58:09;100138.78;;;16.96;97.59
52625;BME280;38519;52.540;13.410;2023-05-23T02:00:35;100142.44;;;16.99;97.16
52625;BME280;38519;52.540;13.410;2023-05-23T02:03:00;100139.09;;;17.03;97.09
52625;BME280;38519;52.540;13.410;2023-05-23T02:05:25;100140.59;;;16.97;97.65
52625;BME280;38519;52.540;13.410;2023-05-23T02:07:51;100143.00;;;16.90;98.44
52625;BME280;38519;52.540;13.410;2023-05-23T02:10:16;100139.22;;;16.84;98.63
52625;BME280;38519;52.540;13.410;2023-05-23T02:12:42;100131.13;;;16.79;98.56
52625;BME280;38519;52.540;13.410;2023-05-23T02:15:07;100135.47;;;16.79;98.50
52625;BME280;38519;52.540;13.410;2023-05-23T02:17:33;100140.69;;;16.77;98.52
52625;BME280;38519;52.540;13.410;2023-05-23T02:19:58;100145.00;;;16.75;98.57
52625;BME280;38519;52.540;13.410;2023-05-23T02:22:24;100137.94;;;16.74;98.75
52625;BME280;38519;52.540;13.410;2023-05-23T02:24:50;100146.75;;;16.74;98.35
52625;BME280;38519;52.540;13.410;2023-05-23T02:27:15;100151.84;;;16.70;98.28
52625;BME280;38519;52.540;13.410;2023-05-23T02:29:41;100141.25;;;16.68;98.47
52625;BME280;38519;52.540;13.410;2023-05-23T02:32:06;100136.78;;;16.67;98.65
52625;BME280;38519;52.540;13.410;2023-05-23T02:34:31;100144.75;;;16.69;98.76
52625;BME280;38519;52.540;13.410;2023-05-23T02:36:57;100144.69;;;16.67;98.78
52625;BME280;38519;52.540;13.410;2023-05-23T02:39:23;100139.50;;;16.69;99.14
52625;BME280;38519;52.540;13.410;2023-05-23T02:41:48;100137.72;;;16.68;98.88
52625;BME280;38519;52.540;13.410;2023-05-23T02:44:14;100139.38;;;16.66;99.01
52625;BME280;38519;52.540;13.410;2023-05-23T02:46:39;100135.78;;;16.64;99.58
52625;BME280;38519;52.540;13.410;2023-05-23T02:49:04;100135.78;;;16.64;99.30
52625;BME280;38519;52.540;13.410;2023-05-23T02:51:30;100126.38;;;16.70;98.95
52625;BME280;38519;52.540;13.410;2023-05-23T02:53:56;100128.72;;;16.85;98.70
52625;BME280;38519;52.540;13.410;2023-05-23T02:56:22;100137.22;;;16.78;98.62
52625;BME280;38519;52.540;13.410;2023-05-23T02:58:47;100125.72;;;16.76;98.83
52625;BME280;38519;52.540;13.410;2023-05-23T03:01:12;100126.38;;;16.93;97.91
52625;BME280;38519;52.540;13.410;2023-05-23T03:03:38;100126.38;;;16.93;97.78
52625;BME280;38519;52.540;13.410;2023-05-23T03:06:05;100123.09;;;16.76;99.01
52625;BME280;38519;52.540;13.410;2023-05-23T03:08:31;100125.25;;;16.64;99.24
52625;BME280;38519;52.540;13.410;2023-05-23T03:10:56;100132.97;;;16.59;100.00
52625;BME280;38519;52.540;13.410;2023-05-23T03:13:21;100120.72;;;16.61;99.65
52625;BME280;38519;52.540;13.410;2023-05-23T03:15:47;100129.38;;;16.57;100.00
52625;BME280;38519;52.540;13.410;2023-05-23T03:18:12;100125.31;;;16.65;99.91
52625;BME280;38519;52.540;13.410;2023-05-23T03:20:38;100120.47;;;16.53;100.00
52625;BME280;38519;52.540;13.410;2023-05-23T03:23:03;100126.56;;;16.52;100.00
52625;BME280;38519;52.540;13.410;2023-05-23T03:25:28;100124.63;;;16.48;100.00
52625;BME280;38519;52.540;13.410;2023-05-23T03:27:53;100121.91;;;16.45;100.00
52625;BME280;38519;52.540;13.410;2023-05-23T03:30:20;100115.53;;;16.40;100.00
52625;BME280;38519;52.540;13.410;2023-05-23T03:32:46;100119.03;;;16.39;100.00
52625;BME280;38519;52.540;13.410;2023-05-23T03:35:11;100115.53;;;16.40;100.00
52625;BME280;38519;52.540;13.410;2023-05-23T03:37:37;100121.59;;;16.37;100.00
52625;BME280;38519;52.540;13.410;2023-05-23T03:40:02;100118.91;;;16.36;100.00
52625;BME280;38519;52.540;13.410;2023-05-23T03:42:28;100120.59;;;16.35;100.00
52625;BME280;38519;52.540;13.410;2023-05-23T03:44:53;100115.34;;;16.35;100.00
52625;BME280;38519;52.540;13.410;2023-05-23T03:47:18;100123.13;;;16.32;100.00
52625;BME280;38519;52.540;13.410;2023-05-23T03:49:44;100112.56;;;16.32;100.00
52625;BME280;38519;52.540;13.410;2023-05-23T03:52:09;100113.56;;;16.34;100.00
52625;BME280;38519;52.540;13.410;2023-05-23T03:54:35;100109.91;;;16.31;100.00
52625;BME280;38519;52.540;13.410;2023-05-23T03:57:00;100111.44;;;16.26;100.00
52625;BME280;38519;52.540;13.410;2023-05-23T03:59:27;100110.63;;;16.27;100.00
52625;BME280;38519;52.540;13.410;2023-05-23T04:01:52;100108.63;;;16.21;100.00
52625;BME280;38519;52.540;13.410;2023-05-23T04:04:18;100104.25;;;16.22;100.00
52625;BME280;38519;52.540;13.410;2023-05-23T04:06:45;100111.19;;;16.19;100.00
52625;BME280;38519;52.540;13.410;2023-05-23T04:09:11;100112.34;;;16.26;100.00
52625;BME280;38519;52.540;13.410;2023-05-23T04:11:37;100110.75;;;16.30;100.00
52625;BME280;38519;52.540;13.410;2023-05-23T04:14:03;100104.50;;;16.28;100.00
52625;BME280;38519;52.540;13.410;2023-05-23T04:16:28;100104.34;;;16.23;100.00
52625;BME280;38519;52.540;13.410;2023-05-23T04:18:57;100105.09;;;16.20;100.00
52625;BME280;38519;52.540;13.410;2023-05-23T04:21:23;100105.22;;;16.24;100.00
52625;BME280;38519;52.540;13.410;2023-05-23T04:23:48;100108.75;;;16.24;100.00
52625;BME280;38519;52.540;13.410;2023-05-23T04:26:14;100104.47;;;16.26;100.00
52625;BME280;38519;52.540;13.410;2023-05-23T04:28:39;100099.25;;;16.28;100.00
52625;BME280;38519;52.540;13.410;2023-05-23T04:31:04;100100.44;;;16.36;100.00
52625;BME280;38519;52.540;13.410;2023-05-23T04:33:30;100108.16;;;16.31;100.00
52625;BME280;38519;52.540;13.410;2023-05-23T04:35:55;100119.66;;;16.33;100.00
52625;BME280;38519;52.540;13.410;2023-05-23T04:38:21;100118.56;;;16.28;100.00
52625;BME280;38519;52.540;13.410;2023-05-23T04:40:49;100115.22;;;16.32;100.00
52625;BME280;38519;52.540;13.410;2023-05-23T04:43:15;100106.34;;;16.30;100.00
52625;BME280;38519;52.540;13.410;2023-05-23T04:45:40;100094.09;;;16.31;100.00
52625;BME280;38519;52.540;13.410;2023-05-23T04:48:06;100105.34;;;16.27;100.00
52625;BME280;38519;52.540;13.410;2023-05-23T04:50:32;100103.47;;;16.24;100.00
52625;BME280;38519;52.540;13.410;2023-05-23T04:53:00;100104.25;;;16.22;100.00
52625;BME280;38519;52.540;13.410;2023-05-23T04:55:25;100106.72;;;16.17;100.00
52625;BME280;38519;52.540;13.410;2023-05-23T04:57:50;100093.28;;;16.11;100.00
52625;BME280;38519;52.540;13.410;2023-05-23T05:00:17;100096.00;;;16.12;100.00
52625;BME280;38519;52.540;13.410;2023-05-23T05:02:42;100094.97;;;16.09;100.00
52625;BME280;38519;52.540;13.410;2023-05-23T05:05:08;100102.63;;;16.02;100.00
52625;BME280;38519;52.540;13.410;2023-05-23T05:07:33;100099.09;;;16.02;100.00
52625;BME280;38519;52.540;13.410;2023-05-23T05:10:00;100092.97;;;16.03;100.00
52625;BME280;38519;52.540;13.410;2023-05-23T05:12:26;100092.72;;;15.97;100.00
52625;BME280;38519;52.540;13.410;2023-05-23T05:14:51;100097.22;;;15.99;100.00
52625;BME280;38519;52.540;13.410;2023-05-23T05:17:16;100095.41;;;15.98;100.00
52625;BME280;38519;52.540;13.410;2023-05-23T05:19:46;100102.56;;;16.01;100.00
52625;BME280;38519;52.540;13.410;2023-05-23T05:22:12;100108.50;;;15.97;100.00
52625;BME280;38519;52.540;13.410;2023-05-23T05:24:37;100110.06;;;15.92;100.00
52625;BME280;38519;52.540;13.410;2023-05-23T05:27:05;100109.44;;;15.97;100.00
52625;BME280;38519;52.540;13.410;2023-05-23T05:29:31;100109.19;;;15.91;100.00
52625;BME280;38519;52.540;13.410;2023-05-23T05:31:58;100104.34;;;15.81;100.00
52625;BME280;38519;52.540;13.410;2023-05-23T05:34:25;100108.78;;;15.82;100.00
52625;BME280;38519;52.540;13.410;2023-05-23T05:36:50;100115.00;;;15.84;100.00
52625;BME280;38519;52.540;13.410;2023-05-23T05:39:21;100116.00;;;15.86;100.00
52625;BME280;38519;52.540;13.410;2023-05-23T05:41:47;100117.91;;;15.90;100.00
52625;BME280;38519;52.540;13.410;2023-05-23T05:44:13;100124.19;;;15.94;100.00
52625;BME280;38519;52.540;13.410;2023-05-23T05:46:38;100126.19;;;15.99;100.00
52625;BME280;38519;52.540;13.410;2023-05-23T05:49:04;100123.78;;;16.27;100.00
52625;BME280;38519;52.540;13.410;2023-05-23T05:51:29;100124.47;;;16.44;100.00
52625;BME280;38519;52.540;13.410;2023-05-23T05:53:55;100119.97;;;16.41;100.00
52625;BME280;38519;52.540;13.410;2023-05-23T05:56:21;100118.91;;;16.36;100.00
52625;BME280;38519;52.540;13.410;2023-05-23T05:58:47;100115.81;;;16.25;100.00
52625;BME280;38519;52.540;13.410;2023-05-23T06:01:12;100112.69;;;16.13;100.00
52625;BME280;38519;52.540;13.410;2023-05-23T06:03:39;100102.88;;;16.09;100.00
52625;BME280;38519;52.540;13.410;2023-05-23T06:06:04;100114.34;;;16.11;100.00
52625;BME280;38519;52.540;13.410;2023-05-23T06:08:30;100107.06;;;16.04;100.00
52625;BME280;38519;52.540;13.410;2023-05-23T06:10:56;100102.16;;;15.92;100.00
52625;BME280;38519;52.540;13.410;2023-05-23T06:13:21;100096.19;;;15.96;100.00
52625;BME280;38519;52.540;13.410;2023-05-23T06:15:47;100095.28;;;15.95;100.00
52625;BME280;38519;52.540;13.410;2023-05-23T06:18:12;100092.34;;;16.09;100.00
52625;BME280;38519;52.540;13.410;2023-05-23T06:20:37;100090.16;;;16.21;100.00
52625;BME280;38519;52.540;13.410;2023-05-23T06:23:03;100093.91;;;16.26;100.00
52625;BME280;38519;52.540;13.410;2023-05-23T06:25:30;100092.66;;;16.16;100.00
52625;BME280;38519;52.540;13.410;2023-05-23T06:27:55;100094.97;;;16.09;100.00
52625;BME280;38519;52.540;13.410;2023-05-23T06:30:21;100095.38;;;16.19;100.00
52625;BME280;38519;52.540;13.410;2023-05-23T06:32:47;100090.75;;;16.35;100.00
52625;BME280;38519;52.540;13.410;2023-05-23T06:35:13;100097.50;;;16.51;100.00
52625;BME280;38519;52.540;13.410;2023-05-23T06:37:38;100093.72;;;16.67;100.00
52625;BME280;38519;52.540;13.410;2023-05-23T06:40:07;100092.22;;;16.73;100.00
52625;BME280;38519;52.540;13.410;2023-05-23T06:42:33;100096.84;;;16.79;100.00
52625;BME280;38519;52.540;13.410;2023-05-23T06:44:59;100094.84;;;16.73;100.00
52625;BME280;38519;52.540;13.410;2023-05-23T06:47:24;100097.66;;;16.78;100.00
52625;BME280;38519;52.540;13.410;2023-05-23T06:49:51;100094.63;;;16.90;100.00
52625;BME280;38519;52.540;13.410;2023-05-23T06:52:17;100097.19;;;17.11;100.00
52625;BME280;38519;52.540;13.410;2023-05-23T06:54:42;100097.22;;;17.37;100.00
52625;BME280;38519;52.540;13.410;2023-05-23T06:57:08;100103.91;;;17.53;100.00
52625;BME280;38519;52.540;13.410;2023-05-23T06:59:33;100101.91;;;17.71;100.00
52625;BME280;38519;52.540;13.410;2023-05-23T07:01:59;100099.59;;;17.80;100.00
52625;BME280;38519;52.540;13.410;2023-05-23T07:04:24;100104.88;;;17.80;100.00
52625;BME280;38519;52.540;13.410;2023-05-23T07:06:49;100107.00;;;17.91;100.00
52625;BME280;38519;52.540;13.410;2023-05-23T07:09:16;100101.81;;;17.94;100.00
52625;BME280;38519;52.540;13.410;2023-05-23T07:11:42;100105.63;;;18.02;100.00
52625;BME280;38519;52.540;13.410;2023-05-23T07:14:07;100108.47;;;18.08;100.00
52625;BME280;38519;52.540;13.410;2023-05-23T07:16:33;100112.34;;;18.19;99.96
52625;BME280;38519;52.540;13.410;2023-05-23T07:18:59;100110.06;;;18.30;100.00
52625;BME280;38519;52.540;13.410;2023-05-23T07:21:25;100109.53;;;18.42;99.38
52625;BME280;38519;52.540;13.410;2023-05-23T07:23:50;100106.78;;;18.39;99.01
52625;BME280;38519;52.540;13.410;2023-05-23T07:26:16;100108.94;;;18.51;97.69
52625;BME280;38519;52.540;13.410;2023-05-23T07:28:41;100110.03;;;18.58;97.95
52625;BME280;38519;52.540;13.410;2023-05-23T07:31:07;100106.00;;;18.70;97.45
52625;BME280;38519;52.540;13.410;2023-05-23T07:33:33;100106.19;;;18.77;97.47
52625;BME280;38519;52.540;13.410;2023-05-23T07:35:58;100101.19;;;18.86;97.43
52625;BME280;38519;52.540;13.410;2023-05-23T07:38:27;100102.44;;;18.99;96.80
52625;BME280;38519;52.540;13.410;2023-05-23T07:40:53;100097.09;;;18.97;96.78
52625;BME280;38519;52.540;13.410;2023-05-23T07:43:19;100088.19;;;18.93;95.09
52625;BME280;38519;52.540;13.410;2023-05-23T07:45:45;100094.31;;;18.91;95.38
52625;BME280;38519;52.540;13.410;2023-05-23T07:48:10;100107.88;;;19.03;95.35
52625;BME280;38519;52.540;13.410;2023-05-23T07:50:38;100108.75;;;19.02;96.03
52625;BME280;38519;52.540;13.410;2023-05-23T07:53:04;100106.94;;;19.01;95.43
52625;BME280;38519;52.540;13.410;2023-05-23T07:55:30;100104.06;;;18.93;95.96
52625;BME280;38519;52.540;13.410;2023-05-23T07:57:56;100113.47;;;18.84;96.25
52625;BME280;38519;52.540;13.410;2023-05-23T08:00:21;100106.94;;;18.72;97.68
52625;BME280;38519;52.540;13.410;2023-05-23T08:02:47;100121.88;;;18.70;97.40
52625;BME280;38519;52.540;13.410;2023-05-23T08:05:12;100123.09;;;18.82;96.68
52625;BME280;38519;52.540;13.410;2023-05-23T08:07:37;100120.25;;;18.75;97.04
52625;BME280;38519;52.540;13.410;2023-05-23T08:10:03;100114.28;;;18.81;97.09
52625;BME280;38519;52.540;13.410;2023-05-23T08:12:28;100121.06;;;18.73;97.73
52625;BME280;38519;52.540;13.410;2023-05-23T08:14:54;100120.06;;;18.69;97.88
52625;BME280;38519;52.540;13.410;2023-05-23T08:17:19;100123.53;;;18.67;97.42
52625;BME280;38519;52.540;13.410;2023-05-23T08:19:45;100119.03;;;18.35;100.00
52625;BME280;38519;52.540;13.410;2023-05-23T08:22:11;100120.22;;;18.45;98.86
52625;BME280;38519;52.540;13.410;2023-05-23T08:24:36;100122.75;;;18.71;98.53
52625;BME280;38519;52.540;13.410;2023-05-23T08:27:01;100121.97;;;18.73;98.73
52625;BME280;38519;52.540;13.410;2023-05-23T08:29:27;100125.78;;;18.83;98.53
52625;BME280;38519;52.540;13.410;2023-05-23T08:31:52;100134.19;;;18.70;99.05
52625;BME280;38519;52.540;13.410;2023-05-23T08:34:18;100133.06;;;18.62;99.64
52625;BME280;38519;52.540;13.410;2023-05-23T08:36:43;100134.75;;;18.60;100.00
52625;BME280;38519;52.540;13.410;2023-05-23T08:39:08;100135.44;;;18.52;100.00
52625;BME280;38519;52.540;13.410;2023-05-23T08:41:34;100139.25;;;18.62;100.00
52625;BME280;38519;52.540;13.410;2023-05-23T08:44:00;100136.13;;;18.75;99.76
52625;BME280;38519;52.540;13.410;2023-05-23T08:46:26;100141.56;;;19.09;99.30
52625;BME280;38519;52.540;13.410;2023-05-23T08:48:52;100140.53;;;19.36;99.49
52625;BME280;38519;52.540;13.410;2023-05-23T08:51:22;100140.53;;;19.68;98.37
52625;BME280;38519;52.540;13.410;2023-05-23T08:53:51;100147.75;;;19.73;98.49
52625;BME280;38519;52.540;13.410;2023-05-23T08:56:18;100151.75;;;19.89;97.96
52625;BME280;38519;52.540;13.410;2023-05-23T08:58:44;100148.94;;;19.83;98.01
52625;BME280;38519;52.540;13.410;2023-05-23T09:01:12;100149.44;;;20.03;97.70
52625;BME280;38519;52.540;13.410;2023-05-23T09:03:38;100159.34;;;20.10;97.65
52625;BME280;38519;52.540;13.410;2023-05-23T09:06:07;100157.94;;;20.25;97.71
52625;BME280;38519;52.540;13.410;2023-05-23T09:08:32;100159.47;;;20.51;97.22
52625;BME280;38519;52.540;13.410;2023-05-23T09:10:58;100165.38;;;20.76;96.88
52625;BME280;38519;52.540;13.410;2023-05-23T09:13:28;100165.59;;;20.85;97.13
52625;BME280;38519;52.540;13.410;2023-05-23T09:16:04;100160.16;;;20.44;97.71
52625;BME280;38519;52.540;13.410;2023-05-23T09:18:40;100167.00;;;20.34;99.18
52625;BME280;38519;52.540;13.410;2023-05-23T09:21:09;100170.72;;;20.78;98.45
52625;BME280;38519;52.540;13.410;2023-05-23T09:23:35;100162.66;;;21.14;97.32
52625;BME280;38519;52.540;13.410;2023-05-23T09:26:02;100163.88;;;21.30;96.73
52625;BME280;38519;52.540;13.410;2023-05-23T09:28:28;100169.38;;;20.97;98.43
52625;BME280;38519;52.540;13.410;2023-05-23T09:31:11;100163.91;;;20.52;100.00
52625;BME280;38519;52.540;13.410;2023-05-23T09:33:47;100174.16;;;20.73;100.00
52625;BME280;38519;52.540;13.410;2023-05-23T09:36:13;100165.03;;;21.00;99.75
52625;BME280;38519;52.540;13.410;2023-05-23T09:38:39;100159.00;;;21.09;99.97
52625;BME280;38519;52.540;13.410;2023-05-23T09:41:06;100167.13;;;20.76;100.00
52625;BME280;38519;52.540;13.410;2023-05-23T09:43:31;100166.94;;;21.07;100.00
52625;BME280;38519;52.540;13.410;2023-05-23T09:46:00;100161.72;;;21.12;100.00
52625;BME280;38519;52.540;13.410;2023-05-23T09:48:28;100162.44;;;21.03;100.00
52625;BME280;38519;52.540;13.410;2023-05-23T09:50:57;100166.72;;;20.97;100.00
52625;BME280;38519;52.540;13.410;2023-05-23T09:53:23;100159.59;;;20.96;100.00
52625;BME280;38519;52.540;13.410;2023-05-23T09:55:49;100164.25;;;21.04;100.00
52625;BME280;38519;52.540;13.410;2023-05-23T09:58:16;100157.47;;;21.19;100.00
52625;BME280;38519;52.540;13.410;2023-05-23T10:00:41;100161.34;;;21.38;100.00
52625;BME280;38519;52.540;13.410;2023-05-23T10:03:11;100165.06;;;21.44;100.00
52625;BME280;38519;52.540;13.410;2023-05-23T10:05:50;100167.41;;;21.75;100.00
52625;BME280;38519;52.540;13.410;2023-05-23T10:08:23;100162.72;;;21.60;99.35
52625;BME280;38519;52.540;13.410;2023-05-23T10:13:25;100170.25;;;20.97;100.00
52625;BME280;38519;52.540;13.410;2023-05-23T10:16:05;100171.41;;;21.10;100.00
52625;BME280;38519;52.540;13.410;2023-05-23T10:18:34;100170.97;;;21.31;100.00
52625;BME280;38519;52.540;13.410;2023-05-23T10:21:04;100167.03;;;21.12;99.87
52625;BME280;38519;52.540;13.410;2023-05-23T10:23:31;100176.47;;;20.99;100.00
52625;BME280;38519;52.540;13.410;2023-05-23T10:25:57;100172.97;;;21.00;100.00
52625;BME280;38519;52.540;13.410;2023-05-23T10:28:22;100175.53;;;20.96;99.69
52625;BME280;38519;52.540;13.410;2023-05-23T10:30:48;100171.78;;;20.86;100.00
52625;BME280;38519;52.540;13.410;2023-05-23T10:33:15;100175.06;;;20.74;100.00
52625;BME280;38519;52.540;13.410;2023-05-23T10:35:46;100168.38;;;20.91;100.00
52625;BME280;38519;52.540;13.410;2023-05-23T10:38:25;100164.69;;;20.86;100.00
52625;BME280;38519;52.540;13.410;2023-05-23T10:45:54;100172.66;;;20.48;100.00
52625;BME280;38519;52.540;13.410;2023-05-23T10:48:20;100171.16;;;20.60;100.00
52625;BME280;38519;52.540;13.410;2023-05-23T10:51:00;100165.50;;;20.46;100.00
52625;BME280;38519;52.540;13.410;2023-05-23T10:53:27;100178.84;;;20.49;100.00
52625;BME280;38519;52.540;13.410;2023-05-23T10:55:54;100180.16;;;20.30;100.00
52625;BME280;38519;52.540;13.410;2023-05-23T10:58:20;100183.28;;;20.13;100.00
52625;BME280;38519;52.540;13.410;2023-05-23T11:00:53;100177.22;;;20.19;100.00
52625;BME280;38519;52.540;13.410;2023-05-23T11:04:04;100182.25;;;20.43;100.00
52625;BME280;38519;52.540;13.410;2023-05-23T11:06:05;100181.66;;;20.55;100.00
52625;BME280;38519;52.540;13.410;2023-05-23T11:08:37;100183.94;;;20.40;100.00
52625;BME280;38519;52.540;13.410;2023-05-23T11:11:04;100192.44;;;20.26;100.00
52625;BME280;38519;52.540;13.410;2023-05-23T11:16:30;100194.25;;;20.29;100.00
52625;BME280;38519;52.540;13.410;2023-05-23T11:21:39;100199.13;;;19.78;100.00
52625;BME280;38519;52.540;13.410;2023-05-23T11:24:06;100192.34;;;19.88;100.00
52625;BME280;38519;52.540;13.410;2023-05-23T11:26:33;100184.88;;;19.75;100.00
52625;BME280;38519;52.540;13.410;2023-05-23T11:28:58;100194.00;;;19.85;100.00
52625;BME280;38519;52.540;13.410;2023-05-23T11:31:24;100199.75;;;20.00;100.00
52625;BME280;38519;52.540;13.410;2023-05-23T11:33:49;100194.56;;;20.06;100.00
52625;BME280;38519;52.540;13.410;2023-05-23T11:36:15;100202.47;;;20.05;100.00
52625;BME280;38519;52.540;13.410;2023-05-23T11:38:40;100202.53;;;20.06;100.00
52625;BME280;38519;52.540;13.410;2023-05-23T11:41:05;100193.63;;;20.04;100.00
52625;BME280;38519;52.540;13.410;2023-05-23T11:43:31;100204.63;;;20.18;100.00
52625;BME280;38519;52.540;13.410;2023-05-23T11:45:56;100201.66;;;20.07;100.00
52625;BME280;38519;52.540;13.410;2023-05-23T11:48:21;100195.41;;;20.04;100.00
52625;BME280;38519;52.540;13.410;2023-05-23T11:53:12;100204.41;;;20.10;100.00
52625;BME280;38519;52.540;13.410;2023-05-23T11:55:46;100215.28;;;19.88;100.00
52625;BME280;38519;52.540;13.410;2023-05-23T11:58:12;100209.53;;;19.72;100.00
52625;BME280;38519;52.540;13.410;2023-05-23T12:00:41;100206.22;;;19.78;100.00
52625;BME280;38519;52.540;13.410;2023-05-23T12:03:07;100209.31;;;19.64;100.00
52625;BME280;38519;52.540;13.410;2023-05-23T12:05:32;100212.78;;;19.62;100.00
52625;BME280;38519;52.540;13.410;2023-05-23T12:07:58;100213.06;;;19.71;100.00
52625;BME280;38519;52.540;13.410;2023-05-23T12:10:25;100213.56;;;19.90;100.00
52625;BME280;38519;52.540;13.410;2023-05-23T12:12:51;100211.00;;;19.93;100.00
52625;BME280;38519;52.540;13.410;2023-05-23T12:15:16;100221.13;;;20.08;100.00
52625;BME280;38519;52.540;13.410;2023-05-23T12:17:44;100221.47;;;19.88;100.00
52625;BME280;38519;52.540;13.410;2023-05-23T12:20:10;100221.91;;;20.04;100.00
52625;BME280;38519;52.540;13.410;2023-05-23T12:22:36;100216.94;;;19.82;100.00
52625;BME280;38519;52.540;13.410;2023-05-23T12:25:01;100222.72;;;20.01;100.00
52625;BME280;38519;52.540;13.410;2023-05-23T12:27:29;100226.06;;;19.94;100.00
52625;BME280;38519;52.540;13.410;2023-05-23T12:30:08;100229.22;;;20.14;100.00
52625;BME280;38519;52.540;13.410;2023-05-23T12:32:34;100227.66;;;19.87;100.00
52625;BME280;38519;52.540;13.410;2023-05-23T12:34:59;100229.56;;;19.62;100.00
52625;BME280;38519;52.540;13.410;2023-05-23T12:37:24;100229.00;;;19.42;100.00
52625;BME280;38519;52.540;13.410;2023-05-23T12:39:50;100223.56;;;19.07;100.00
52625;BME280;38519;52.540;13.410;2023-05-23T12:42:15;100231.25;;;19.00;100.00
52625;BME280;38519;52.540;13.410;2023-05-23T12:44:40;100227.56;;;18.95;100.00
52625;BME280;38519;52.540;13.410;2023-05-23T12:47:07;100235.03;;;18.81;100.00
52625;BME280;38519;52.540;13.410;2023-05-23T12:49:32;100225.66;;;18.63;100.00
52625;BME280;38519;52.540;13.410;2023-05-23T12:51:57;100238.50;;;18.78;100.00
52625;BME280;38519;52.540;13.410;2023-05-23T12:54:23;100225.69;;;18.65;100.00